sensor_id;sensor_type;location;lat;lon;timestamp;pressure;altitude;pressure_sealevel;temperature;humidity
47738;BME280;33502;47.182;27.506;2023-04-27T00:02:02;99899.38;;;4.09;100.00
47738;BME280;33502;47.182;27.506;2023-04-27T00:04:28;99894.13;;;4.09;100.00
47738;BME280;33502;47.182;27.506;2023-04-27T00:06:53;99893.31;;;4.06;100.00
47738;BME280;33502;47.182;27.506;2023-04-27T00:09:19;99900.28;;;4.07;100.00
47738;BME280;33502;47.182;27.506;2023-04-27T00:11:45;99904.69;;;4.05;100.00
47738;BME280;33502;47.182;27.506;2023-04-27T00:14:10;99896.06;;;4.01;100.00
47738;BME280;33502;47.182;27.506;2023-04-27T00:16:36;99898.75;;;3.98;100.00
47738;BME280;33502;47.182;27.506;2023-04-27T00:19:01;99904.94;;;3.94;100.00
47738;BME280;33502;47.182;27.506;2023-04-27T00:21:27;99898.94;;;3.89;100.00
47738;BME280;33502;47.182;27.506;2023-04-27T00:23:53;99906.94;;;3.83;100.00
47738;BME280;33502;47.182;27.506;2023-04-27T00:26:19;99900.94;;;3.78;100.00
47738;BME280;33502;47.182;27.506;2023-04-27T00:28:49;99901.03;;;3.73;100.00
47738;BME280;33502;47.182;27.506;2023-04-27T00:31:15;99892.38;;;3.69;100.00
47738;BME280;33502;47.182;27.506;2023-04-27T00:33:41;99892.41;;;3.68;100.00
47738;BME280;33502;47.182;27.506;2023-04-27T00:36:07;99893.25;;;3.70;100.00
47738;BME280;33502;47.182;27.506;2023-04-27T00:38:32;99901.94;;;3.70;100.00
47738;BME280;33502;47.182;27.506;2023-04-27T00:41:01;99899.34;;;3.70;100.00
47738;BME280;33502;47.182;27.506;2023-04-27T00:43:27;99892.38;;;3.69;100.00
47738;BME280;33502;47.182;27.506;2023-04-27T00:45:53;99889.78;;;3.69;100.00
47738;BME280;33502;47.182;27.506;2023-04-27T00:48:19;99883.63;;;3.70;100.00
47738;BME280;33502;47.182;27.506;2023-04-27T00:50:44;99888.81;;;3.73;100.00
47738;BME280;33502;47.182;27.506;2023-04-27T00:53:10;99894.03;;;3.73;100.00
47738;BME280;33502;47.182;27.506;2023-04-27T00:55:36;99896.72;;;3.70;100.00
47738;BME280;33502;47.182;27.506;2023-04-27T00:58:02;99890.63;;;3.70;100.00
47738;BME280;33502;47.182;27.506;2023-04-27T01:00:28;99895.84;;;3.70;100.00
47738;BME280;33502;47.182;27.506;2023-04-27T01:02:53;99902.91;;;3.66;100.00
47738;BME280;33502;47.182;27.506;2023-04-27T01:05:19;99906.53;;;3.59;100.00
47738;BME280;33502;47.182;27.506;2023-04-27T01:07:46;99905.69;;;3.59;100.00
47738;BME280;33502;47.182;27.506;2023-04-27T01:10:12;99913.66;;;3.54;100.00
47738;BME280;33502;47.182;27.506;2023-04-27T01:12:37;99918.13;;;3.49;100.00
47738;BME280;33502;47.182;27.506;2023-04-27T01:15:04;99921.63;;;3.48;100.00
47738;BME280;33502;47.182;27.506;2023-04-27T01:17:31;99927.78;;;3.45;100.00
47738;BME280;33502;47.182;27.506;2023-04-27T01:19:57;99923.47;;;3.43;100.00
47738;BME280;33502;47.182;27.506;2023-04-27T01:22:24;99935.75;;;3.41;100.00
47738;BME280;33502;47.182;27.506;2023-04-27T01:24:51;99939.31;;;3.37;100.00
47738;BME280;33502;47.182;27.506;2023-04-27T01:27:18;99943.78;;;3.30;100.00
47738;BME280;33502;47.182;27.506;2023-04-27T01:29:43;99941.25;;;3.27;100.00
47738;BME280;33502;47.182;27.506;2023-04-27T01:32:09;99944.72;;;3.27;100.00
47738;BME280;33502;47.182;27.506;2023-04-27T01:34:36;99938.66;;;3.25;100.00
47738;BME280;33502;47.182;27.506;2023-04-27T01:37:02;99940.47;;;3.22;100.00
47738;BME280;33502;47.182;27.506;2023-04-27T01:39:28;99937.88;;;3.19;100.00
47738;BME280;33502;47.182;27.506;2023-04-27T01:41:53;99944.00;;;3.19;100.00
47738;BME280;33502;47.182;27.506;2023-04-27T01:44:19;99945.81;;;3.16;100.00
47738;BME280;33502;47.182;27.506;2023-04-27T01:46:46;99949.31;;;3.13;100.00
47738;BME280;33502;47.182;27.506;2023-04-27T01:49:12;99947.66;;;3.09;100.00
47738;BME280;33502;47.182;27.506;2023-04-27T01:51:37;99944.22;;;3.07;100.00
47738;BME280;33502;47.182;27.506;2023-04-27T01:54:03;99937.28;;;3.06;100.00
47738;BME280;33502;47.182;27.506;2023-04-27T01:56:28;99939.84;;;3.07;100.00
47738;BME280;33502;47.182;27.506;2023-04-27T01:58:54;99945.13;;;3.06;100.00
47738;BME280;33502;47.182;27.506;2023-04-27T02:01:20;99951.22;;;3.06;100.00
47738;BME280;33502;47.182;27.506;2023-04-27T02:03:45;99943.38;;;3.05;100.00
47738;BME280;33502;47.182;27.506;2023-04-27T02:06:11;99949.53;;;3.02;100.00
47738;BME280;33502;47.182;27.506;2023-04-27T02:08:38;99958.34;;;2.98;100.00
47738;BME280;33502;47.182;27.506;2023-04-27T02:11:07;99954.84;;;2.96;100.00
47738;BME280;33502;47.182;27.506;2023-04-27T02:13:33;99956.72;;;2.89;100.00
47738;BME280;33502;47.182;27.506;2023-04-27T02:15:58;99956.81;;;2.85;100.00
47738;BME280;33502;47.182;27.506;2023-04-27T02:18:26;99962.94;;;2.82;100.00
47738;BME280;33502;47.182;27.506;2023-04-27T02:20:52;99969.13;;;2.78;100.00
47738;BME280;33502;47.182;27.506;2023-04-27T02:23:18;99968.28;;;2.76;100.00
47738;BME280;33502;47.182;27.506;2023-04-27T02:25:43;99971.75;;;2.77;100.00
47738;BME280;33502;47.182;27.506;2023-04-27T02:28:11;99972.69;;;2.74;100.00
47738;BME280;33502;47.182;27.506;2023-04-27T02:30:38;99970.06;;;2.74;100.00
47738;BME280;33502;47.182;27.506;2023-04-27T02:33:03;99973.56;;;2.73;100.00
47738;BME280;33502;47.182;27.506;2023-04-27T02:35:30;99977.09;;;2.70;100.00
47738;BME280;33502;47.182;27.506;2023-04-27T02:37:58;99984.09;;;2.68;100.00
47738;BME280;33502;47.182;27.506;2023-04-27T02:40:24;99983.28;;;2.65;100.00
47738;BME280;33502;47.182;27.506;2023-04-27T02:42:50;99989.44;;;2.62;100.00
47738;BME280;33502;47.182;27.506;2023-04-27T02:45:16;99985.91;;;2.63;100.00
47738;BME280;33502;47.182;27.506;2023-04-27T02:47:42;99987.66;;;2.64;100.00
47738;BME280;33502;47.182;27.506;2023-04-27T02:50:08;99986.72;;;2.68;100.00
47738;BME280;33502;47.182;27.506;2023-04-27T02:52:34;99985.03;;;2.64;100.00
47738;BME280;33502;47.182;27.506;2023-04-27T02:55:00;99982.47;;;2.61;100.00
47738;BME280;33502;47.182;27.506;2023-04-27T02:57:26;99986.84;;;2.59;100.00
47738;BME280;33502;47.182;27.506;2023-04-27T02:59:52;99993.84;;;2.57;100.00
47738;BME280;33502;47.182;27.506;2023-04-27T03:02:17;99998.22;;;2.57;100.00
47738;BME280;33502;47.182;27.506;2023-04-27T03:04:43;100006.00;;;2.61;100.00
47738;BME280;33502;47.182;27.506;2023-04-27T03:07:09;100003.34;;;2.63;100.00
47738;BME280;33502;47.182;27.506;2023-04-27T03:09:36;100011.19;;;2.64;100.00
47738;BME280;33502;47.182;27.506;2023-04-27T03:12:02;100012.88;;;2.65;100.00
47738;BME280;33502;47.182;27.506;2023-04-27T03:14:28;100016.34;;;2.67;100.00
47738;BME280;33502;47.182;27.506;2023-04-27T03:16:53;100025.00;;;2.71;100.00
47738;BME280;33502;47.182;27.506;2023-04-27T03:19:21;100024.13;;;2.72;100.00
47738;BME280;33502;47.182;27.506;2023-04-27T03:21:48;100031.97;;;2.72;100.00
47738;BME280;33502;47.182;27.506;2023-04-27T03:24:14;100036.31;;;2.73;100.00
47738;BME280;33502;47.182;27.506;2023-04-27T03:26:41;100039.75;;;2.75;100.00
47738;BME280;33502;47.182;27.506;2023-04-27T03:29:07;100038.03;;;2.76;100.00
47738;BME280;33502;47.182;27.506;2023-04-27T03:31:32;100042.34;;;2.78;100.00
47738;BME280;33502;47.182;27.506;2023-04-27T03:33:58;100038.81;;;2.81;100.00
47738;BME280;33502;47.182;27.506;2023-04-27T03:36:24;100038.72;;;2.87;100.00
47738;BME280;33502;47.182;27.506;2023-04-27T03:38:49;100050.78;;;2.94;100.00
47738;BME280;33502;47.182;27.506;2023-04-27T03:41:15;100052.41;;;3.03;100.00
47738;BME280;33502;47.182;27.506;2023-04-27T03:43:41;100055.78;;;3.09;100.00
47738;BME280;33502;47.182;27.506;2023-04-27T03:46:07;100051.31;;;3.16;100.00
47738;BME280;33502;47.182;27.506;2023-04-27T03:48:32;100054.72;;;3.21;100.00
47738;BME280;33502;47.182;27.506;2023-04-27T03:50:59;100058.06;;;3.29;100.00
47738;BME280;33502;47.182;27.506;2023-04-27T03:53:25;100056.19;;;3.38;100.00
47738;BME280;33502;47.182;27.506;2023-04-27T03:55:51;100053.41;;;3.47;100.00
47738;BME280;33502;47.182;27.506;2023-04-27T03:58:16;100053.97;;;3.63;100.00
47738;BME280;33502;47.182;27.506;2023-04-27T04:01:02;100054.47;;;3.83;100.00
47738;BME280;33502;47.182;27.506;2023-04-27T04:03:28;100059.28;;;4.05;100.00
47738;BME280;33502;47.182;27.506;2023-04-27T04:05:54;100058.22;;;4.14;100.00
47738;BME280;33502;47.182;27.506;2023-04-27T04:08:20;100056.34;;;4.20;100.00
47738;BME280;33502;47.182;27.506;2023-04-27T04:10:45;100067.38;;;4.36;100.00
47738;BME280;33502;47.182;27.506;2023-04-27T04:13:11;100063.94;;;4.73;100.00
47738;BME280;33502;47.182;27.506;2023-04-27T04:15:37;100066.25;;;5.23;100.00
47738;BME280;33502;47.182;27.506;2023-04-27T04:18:03;100060.16;;;5.88;100.00
47738;BME280;33502;47.182;27.506;2023-04-27T04:20:29;100069.38;;;6.64;100.00
47738;BME280;33502;47.182;27.506;2023-04-27T04:22:54;100074.06;;;7.37;100.00
47738;BME280;33502;47.182;27.506;2023-04-27T04:25:20;100083.69;;;8.14;100.00
47738;BME280;33502;47.182;27.506;2023-04-27T04:27:46;100071.53;;;8.80;100.00
47738;BME280;33502;47.182;27.506;2023-04-27T04:30:13;100078.00;;;9.17;100.00
47738;BME280;33502;47.182;27.506;2023-04-27T04:32:40;100077.50;;;9.50;100.00
47738;BME280;33502;47.182;27.506;2023-04-27T04:35:06;100074.88;;;9.50;100.00
47738;BME280;33502;47.182;27.506;2023-04-27T04:37:32;100070.78;;;9.64;100.00
47738;BME280;33502;47.182;27.506;2023-04-27T04:39:59;100082.88;;;9.69;100.00
47738;BME280;33502;47.182;27.506;2023-04-27T04:42:25;100076.91;;;10.05;100.00
47738;BME280;33502;47.182;27.506;2023-04-27T04:44:50;100079.22;;;10.13;100.00
47738;BME280;33502;47.182;27.506;2023-04-27T04:47:16;100086.81;;;10.00;100.00
47738;BME280;33502;47.182;27.506;2023-04-27T04:49:45;100086.09;;;9.76;100.00
47738;BME280;33502;47.182;27.506;2023-04-27T04:52:10;100086.75;;;9.18;100.00
47738;BME280;33502;47.182;27.506;2023-04-27T04:54:36;100081.53;;;9.16;100.00
47738;BME280;33502;47.182;27.506;2023-04-27T04:57:02;100085.84;;;9.62;100.00
47738;BME280;33502;47.182;27.506;2023-04-27T04:59:31;100091.88;;;10.25;100.00
47738;BME280;33502;47.182;27.506;2023-04-27T05:01:57;100078.47;;;10.49;100.00
47738;BME280;33502;47.182;27.506;2023-04-27T05:04:22;100081.78;;;10.73;100.00
47738;BME280;33502;47.182;27.506;2023-04-27T05:06:48;100084.97;;;11.35;96.59
47738;BME280;33502;47.182;27.506;2023-04-27T05:09:13;100085.44;;;11.43;94.04
47738;BME280;33502;47.182;27.506;2023-04-27T05:11:39;100089.41;;;10.79;95.21
47738;BME280;33502;47.182;27.506;2023-04-27T05:14:05;100095.09;;;11.44;94.06
47738;BME280;33502;47.182;27.506;2023-04-27T05:16:31;100092.59;;;11.24;92.70
47738;BME280;33502;47.182;27.506;2023-04-27T05:18:56;100089.78;;;11.27;89.44
47738;BME280;33502;47.182;27.506;2023-04-27T05:21:22;100097.78;;;11.25;89.72
47738;BME280;33502;47.182;27.506;2023-04-27T05:23:48;100098.34;;;11.32;88.77
47738;BME280;33502;47.182;27.506;2023-04-27T05:26:14;100100.97;;;11.68;86.21
47738;BME280;33502;47.182;27.506;2023-04-27T05:28:40;100100.59;;;11.93;83.86
47738;BME280;33502;47.182;27.506;2023-04-27T05:31:06;100113.91;;;12.27;84.73
47738;BME280;33502;47.182;27.506;2023-04-27T05:33:32;100109.03;;;12.35;81.70
47738;BME280;33502;47.182;27.506;2023-04-27T05:35:58;100108.19;;;12.34;79.74
47738;BME280;33502;47.182;27.506;2023-04-27T05:38:24;100109.66;;;12.72;79.60
47738;BME280;33502;47.182;27.506;2023-04-27T05:40:56;100100.78;;;12.73;76.99
47738;BME280;33502;47.182;27.506;2023-04-27T05:43:23;100095.88;;;13.13;76.08
47738;BME280;33502;47.182;27.506;2023-04-27T05:45:48;100094.94;;;12.98;75.72
47738;BME280;33502;47.182;27.506;2023-04-27T05:48:14;100099.88;;;13.52;74.00
47738;BME280;33502;47.182;27.506;2023-04-27T05:50:39;100094.59;;;13.36;73.37
47738;BME280;33502;47.182;27.506;2023-04-27T05:53:05;100092.56;;;13.86;73.24
47738;BME280;33502;47.182;27.506;2023-04-27T05:55:31;100090.78;;;14.01;70.93
47738;BME280;33502;47.182;27.506;2023-04-27T05:57:57;100081.19;;;13.68;71.08
47738;BME280;33502;47.182;27.506;2023-04-27T06:00:22;100089.53;;;13.62;71.66
47738;BME280;33502;47.182;27.506;2023-04-27T06:02:49;100083.63;;;14.01;71.45
47738;BME280;33502;47.182;27.506;2023-04-27T06:05:15;100089.16;;;14.41;69.14
47738;BME280;33502;47.182;27.506;2023-04-27T06:07:40;100088.91;;;14.60;67.04
47738;BME280;33502;47.182;27.506;2023-04-27T06:10:08;100091.34;;;14.63;65.62
47738;BME280;33502;47.182;27.506;2023-04-27T06:12:34;100094.19;;;14.89;65.35
47738;BME280;33502;47.182;27.506;2023-04-27T06:14:59;100099.63;;;15.15;64.73
47738;BME280;33502;47.182;27.506;2023-04-27T06:17:28;100095.03;;;15.17;62.70
47738;BME280;33502;47.182;27.506;2023-04-27T06:19:53;100079.84;;;14.63;63.94
47738;BME280;33502;47.182;27.506;2023-04-27T06:22:19;100100.00;;;14.24;64.47
47738;BME280;33502;47.182;27.506;2023-04-27T06:24:44;100112.25;;;13.98;66.52
47738;BME280;33502;47.182;27.506;2023-04-27T06:27:11;100095.13;;;14.88;65.09
47738;BME280;33502;47.182;27.506;2023-04-27T06:29:37;100099.88;;;14.97;62.96
47738;BME280;33502;47.182;27.506;2023-04-27T06:32:03;100097.41;;;14.94;60.50
47738;BME280;33502;47.182;27.506;2023-04-27T06:34:32;100090.34;;;14.93;62.66
47738;BME280;33502;47.182;27.506;2023-04-27T06:36:57;100085.88;;;15.21;59.97
47738;BME280;33502;47.182;27.506;2023-04-27T06:39:23;100084.84;;;15.63;60.73
47738;BME280;33502;47.182;27.506;2023-04-27T06:41:48;100081.84;;;15.68;60.40
47738;BME280;33502;47.182;27.506;2023-04-27T06:44:17;100073.09;;;14.99;59.40
47738;BME280;33502;47.182;27.506;2023-04-27T06:46:43;100094.28;;;15.15;59.71
47738;BME280;33502;47.182;27.506;2023-04-27T06:49:09;100092.91;;;15.76;58.55
47738;BME280;33502;47.182;27.506;2023-04-27T06:51:35;100096.03;;;16.34;57.04
47738;BME280;33502;47.182;27.506;2023-04-27T06:54:00;100096.19;;;16.82;55.85
47738;BME280;33502;47.182;27.506;2023-04-27T06:56:26;100096.72;;;16.88;54.53
47738;BME280;33502;47.182;27.506;2023-04-27T06:58:51;100101.78;;;16.54;54.70
47738;BME280;33502;47.182;27.506;2023-04-27T07:01:17;100103.56;;;16.66;54.35
47738;BME280;33502;47.182;27.506;2023-04-27T07:03:43;100103.44;;;16.80;54.97
47738;BME280;33502;47.182;27.506;2023-04-27T07:06:08;100100.19;;;17.01;53.85
47738;BME280;33502;47.182;27.506;2023-04-27T07:08:34;100097.22;;;16.93;54.26
47738;BME280;33502;47.182;27.506;2023-04-27T07:11:01;100102.44;;;14.99;56.96
47738;BME280;33502;47.182;27.506;2023-04-27T07:13:26;100103.97;;;14.02;61.94
47738;BME280;33502;47.182;27.506;2023-04-27T07:15:55;100105.31;;;12.87;63.11
47738;BME280;33502;47.182;27.506;2023-04-27T07:18:23;100100.53;;;12.93;64.54
47738;BME280;33502;47.182;27.506;2023-04-27T07:20:50;100090.84;;;12.92;66.48
47738;BME280;33502;47.182;27.506;2023-04-27T07:23:15;100090.44;;;12.35;67.23
47738;BME280;33502;47.182;27.506;2023-04-27T07:25:41;100092.34;;;12.49;66.50
47738;BME280;33502;47.182;27.506;2023-04-27T07:28:07;100101.22;;;11.99;68.81
47738;BME280;33502;47.182;27.506;2023-04-27T07:30:34;100081.53;;;13.16;65.14
47738;BME280;33502;47.182;27.506;2023-04-27T07:33:01;100088.53;;;15.21;59.17
47738;BME280;33502;47.182;27.506;2023-04-27T07:35:27;100085.50;;;15.40;54.12
47738;BME280;33502;47.182;27.506;2023-04-27T07:37:52;100088.75;;;13.90;59.54
47738;BME280;33502;47.182;27.506;2023-04-27T07:40:19;100088.69;;;12.18;66.20
47738;BME280;33502;47.182;27.506;2023-04-27T07:42:46;100095.38;;;11.21;68.81
47738;BME280;33502;47.182;27.506;2023-04-27T07:45:12;100105.44;;;10.38;71.44
47738;BME280;33502;47.182;27.506;2023-04-27T07:47:38;100101.72;;;9.82;71.63
47738;BME280;33502;47.182;27.506;2023-04-27T07:50:05;100105.38;;;9.37;74.97
47738;BME280;33502;47.182;27.506;2023-04-27T07:52:31;100110.53;;;9.18;72.62
47738;BME280;33502;47.182;27.506;2023-04-27T07:54:57;100115.31;;;9.30;74.06
47738;BME280;33502;47.182;27.506;2023-04-27T07:57:23;100102.19;;;9.29;75.80
47738;BME280;33502;47.182;27.506;2023-04-27T07:59:48;100114.09;;;8.95;79.59
47738;BME280;33502;47.182;27.506;2023-04-27T08:02:14;100123.22;;;8.86;80.25
47738;BME280;33502;47.182;27.506;2023-04-27T08:04:40;100119.94;;;8.81;82.93
47738;BME280;33502;47.182;27.506;2023-04-27T08:07:05;100115.56;;;8.80;81.68
47738;BME280;33502;47.182;27.506;2023-04-27T08:09:31;100122.19;;;8.90;81.01
47738;BME280;33502;47.182;27.506;2023-04-27T08:11:57;100120.72;;;9.05;81.94
47738;BME280;33502;47.182;27.506;2023-04-27T08:14:22;100119.63;;;9.11;74.72
47738;BME280;33502;47.182;27.506;2023-04-27T08:16:48;100117.00;;;9.33;72.97
47738;BME280;33502;47.182;27.506;2023-04-27T08:19:16;100123.56;;;9.45;70.55
47738;BME280;33502;47.182;27.506;2023-04-27T08:21:42;100130.91;;;9.58;67.74
47738;BME280;33502;47.182;27.506;2023-04-27T08:24:08;100123.09;;;9.76;69.42
47738;BME280;33502;47.182;27.506;2023-04-27T08:26:34;100137.06;;;9.79;74.42
47738;BME280;33502;47.182;27.506;2023-04-27T08:29:00;100119.75;;;9.72;75.30
47738;BME280;33502;47.182;27.506;2023-04-27T08:31:26;100124.66;;;9.61;74.12
47738;BME280;33502;47.182;27.506;2023-04-27T08:33:52;100120.16;;;9.41;72.05
47738;BME280;33502;47.182;27.506;2023-04-27T08:36:19;100125.25;;;9.46;72.01
47738;BME280;33502;47.182;27.506;2023-04-27T08:38:45;100118.75;;;9.54;69.57
47738;BME280;33502;47.182;27.506;2023-04-27T08:41:16;100126.28;;;9.64;66.72
47738;BME280;33502;47.182;27.506;2023-04-27T08:43:42;100132.47;;;9.63;63.40
47738;BME280;33502;47.182;27.506;2023-04-27T08:46:07;100129.88;;;9.83;62.37
47738;BME280;33502;47.182;27.506;2023-04-27T08:48:33;100115.16;;;12.69;62.56
47738;BME280;33502;47.182;27.506;2023-04-27T08:50:59;100120.50;;;13.17;55.12
47738;BME280;33502;47.182;27.506;2023-04-27T08:53:25;100118.25;;;12.77;53.15
47738;BME280;33502;47.182;27.506;2023-04-27T08:55:51;100114.63;;;11.95;53.20
47738;BME280;33502;47.182;27.506;2023-04-27T08:58:16;100120.06;;;11.57;56.59
47738;BME280;33502;47.182;27.506;2023-04-27T09:00:42;100118.53;;;11.34;56.67
47738;BME280;33502;47.182;27.506;2023-04-27T09:03:18;100121.00;;;11.39;56.37
47738;BME280;33502;47.182;27.506;2023-04-27T09:05:46;100112.22;;;11.91;58.78
47738;BME280;33502;47.182;27.506;2023-04-27T09:08:12;100127.41;;;11.52;61.60
47738;BME280;33502;47.182;27.506;2023-04-27T09:10:47;100122.50;;;11.08;63.18
47738;BME280;33502;47.182;27.506;2023-04-27T09:13:13;100124.28;;;10.89;63.41
47738;BME280;33502;47.182;27.506;2023-04-27T09:15:43;100105.19;;;10.63;62.54
47738;BME280;33502;47.182;27.506;2023-04-27T09:18:15;100103.38;;;10.45;64.28
47738;BME280;33502;47.182;27.506;2023-04-27T09:20:42;100123.25;;;10.34;65.06
47738;BME280;33502;47.182;27.506;2023-04-27T09:23:08;100117.47;;;10.25;62.04
47738;BME280;33502;47.182;27.506;2023-04-27T09:25:33;100123.13;;;10.75;63.68
47738;BME280;33502;47.182;27.506;2023-04-27T09:28:00;100126.09;;;11.25;64.74
47738;BME280;33502;47.182;27.506;2023-04-27T09:30:26;100119.22;;;11.21;65.25
47738;BME280;33502;47.182;27.506;2023-04-27T09:33:01;100110.75;;;10.95;63.17
47738;BME280;33502;47.182;27.506;2023-04-27T09:35:27;100112.41;;;10.60;66.11
47738;BME280;33502;47.182;27.506;2023-04-27T09:37:54;100121.91;;;10.45;67.56
47738;BME280;33502;47.182;27.506;2023-04-27T09:40:21;100119.97;;;10.48;70.42
47738;BME280;33502;47.182;27.506;2023-04-27T09:42:55;100116.59;;;10.45;70.23
47738;BME280;33502;47.182;27.506;2023-04-27T09:45:22;100121.28;;;10.40;70.55
47738;BME280;33502;47.182;27.506;2023-04-27T09:47:47;100125.09;;;10.32;70.41
47738;BME280;33502;47.182;27.506;2023-04-27T09:50:13;100128.41;;;10.37;72.24
47738;BME280;33502;47.182;27.506;2023-04-27T09:52:39;100130.19;;;10.37;73.27
47738;BME280;33502;47.182;27.506;2023-04-27T09:55:07;100126.03;;;10.31;71.84
47738;BME280;33502;47.182;27.506;2023-04-27T09:57:44;100133.41;;;10.23;71.69
47738;BME280;33502;47.182;27.506;2023-04-27T10:00:29;100111.03;;;10.32;71.82
47738;BME280;33502;47.182;27.506;2023-04-27T10:03:46;100123.56;;;10.47;70.94
47738;BME280;33502;47.182;27.506;2023-04-27T10:08:29;100120.06;;;10.66;67.01
47738;BME280;33502;47.182;27.506;2023-04-27T10:10:54;100122.75;;;10.64;66.87
47738;BME280;33502;47.182;27.506;2023-04-27T10:13:24;100130.88;;;10.80;67.93
47738;BME280;33502;47.182;27.506;2023-04-27T10:15:50;100119.34;;;10.81;66.93
47738;BME280;33502;47.182;27.506;2023-04-27T10:18:26;100128.94;;;11.03;66.69
47738;BME280;33502;47.182;27.506;2023-04-27T10:20:53;100117.38;;;11.04;66.62
47738;BME280;33502;47.182;27.506;2023-04-27T10:23:24;100123.66;;;10.84;69.24
47738;BME280;33502;47.182;27.506;2023-04-27T10:25:50;100129.50;;;10.52;70.15
47738;BME280;33502;47.182;27.506;2023-04-27T10:28:17;100127.84;;;10.29;70.66
47738;BME280;33502;47.182;27.506;2023-04-27T10:30:44;100123.56;;;10.06;71.71
47738;BME280;33502;47.182;27.506;2023-04-27T10:33:17;100135.44;;;9.97;73.97
47738;BME280;33502;47.182;27.506;2023-04-27T10:35:44;100140.56;;;10.00;74.52
47738;BME280;33502;47.182;27.506;2023-04-27T10:38:18;100127.63;;;10.15;72.90
47738;BME280;33502;47.182;27.506;2023-04-27T10:40:58;100135.41;;;10.18;73.16
47738;BME280;33502;47.182;27.506;2023-04-27T10:43:30;100132.25;;;10.30;75.07
47738;BME280;33502;47.182;27.506;2023-04-27T10:46:09;100131.06;;;10.37;74.51
47738;BME280;33502;47.182;27.506;2023-04-27T10:48:39;100130.66;;;10.66;72.42
47738;BME280;33502;47.182;27.506;2023-04-27T10:51:05;100131.16;;;10.93;68.67
47738;BME280;33502;47.182;27.506;2023-04-27T10:53:37;100132.97;;;11.46;71.03
47738;BME280;33502;47.182;27.506;2023-04-27T10:56:03;100124.75;;;11.70;64.85
47738;BME280;33502;47.182;27.506;2023-04-27T10:58:31;100137.88;;;12.25;63.04
47738;BME280;33502;47.182;27.506;2023-04-27T11:00:57;100136.19;;;12.40;65.45
47738;BME280;33502;47.182;27.506;2023-04-27T11:03:23;100130.56;;;12.46;64.34
47738;BME280;33502;47.182;27.506;2023-04-27T11:05:58;100137.19;;;12.38;66.79
47738;BME280;33502;47.182;27.506;2023-04-27T11:08:24;100132.78;;;11.68;67.38
47738;BME280;33502;47.182;27.506;2023-04-27T11:10:50;100140.00;;;11.30;70.66
47738;BME280;33502;47.182;27.506;2023-04-27T11:13:16;100141.66;;;10.94;72.15
47738;BME280;33502;47.182;27.506;2023-04-27T11:15:52;100145.63;;;10.67;74.34
47738;BME280;33502;47.182;27.506;2023-04-27T11:18:22;100155.13;;;10.52;77.75
47738;BME280;33502;47.182;27.506;2023-04-27T11:20:49;100151.69;;;10.50;74.14
47738;BME280;33502;47.182;27.506;2023-04-27T11:23:25;100153.66;;;10.45;72.86
47738;BME280;33502;47.182;27.506;2023-04-27T11:25:51;100140.44;;;10.45;71.03
47738;BME280;33502;47.182;27.506;2023-04-27T11:28:17;100153.66;;;10.45;68.41
47738;BME280;33502;47.182;27.506;2023-04-27T11:30:43;100159.28;;;10.57;69.35
47738;BME280;33502;47.182;27.506;2023-04-27T11:33:09;100158.84;;;10.67;66.69
47738;BME280;33502;47.182;27.506;2023-04-27T11:35:35;100163.16;;;11.07;65.43
47738;BME280;33502;47.182;27.506;2023-04-27T11:38:01;100151.72;;;11.43;66.19
47738;BME280;33502;47.182;27.506;2023-04-27T11:40:26;100154.06;;;11.49;65.69
47738;BME280;33502;47.182;27.506;2023-04-27T11:42:58;100151.69;;;11.26;67.90
47738;BME280;33502;47.182;27.506;2023-04-27T11:45:24;100158.09;;;11.03;70.25
47738;BME280;33502;47.182;27.506;2023-04-27T11:47:52;100142.03;;;10.87;70.48
47738;BME280;33502;47.182;27.506;2023-04-27T11:50:17;100145.47;;;10.89;71.01
47738;BME280;33502;47.182;27.506;2023-04-27T11:52:46;100154.41;;;11.05;73.06
47738;BME280;33502;47.182;27.506;2023-04-27T11:55:12;100156.19;;;11.24;73.61
47738;BME280;33502;47.182;27.506;2023-04-27T11:57:40;100154.16;;;11.29;73.14
47738;BME280;33502;47.182;27.506;2023-04-27T12:00:06;100143.97;;;11.39;72.01
47738;BME280;33502;47.182;27.506;2023-04-27T12:02:39;100149.72;;;11.83;71.84
47738;BME280;33502;47.182;27.506;2023-04-27T12:05:05;100143.44;;;11.32;71.94
47738;BME280;33502;47.182;27.506;2023-04-27T12:07:32;100151.22;;;10.80;75.29
47738;BME280;33502;47.182;27.506;2023-04-27T12:09:57;100155.75;;;10.38;76.84
47738;BME280;33502;47.182;27.506;2023-04-27T12:12:23;100155.53;;;10.02;78.75
47738;BME280;33502;47.182;27.506;2023-04-27T12:14:49;100160.81;;;9.81;80.22
47738;BME280;33502;47.182;27.506;2023-04-27T12:17:15;100160.81;;;9.81;82.03
47738;BME280;33502;47.182;27.506;2023-04-27T12:19:41;100169.81;;;9.97;79.75
47738;BME280;33502;47.182;27.506;2023-04-27T12:22:07;100158.97;;;10.24;78.69
47738;BME280;33502;47.182;27.506;2023-04-27T12:24:33;100154.41;;;10.67;79.06
47738;BME280;33502;47.182;27.506;2023-04-27T12:26:59;100149.97;;;10.87;73.50
47738;BME280;33502;47.182;27.506;2023-04-27T12:29:25;100138.38;;;11.08;72.65
47738;BME280;33502;47.182;27.506;2023-04-27T12:31:51;100138.19;;;11.30;70.96
47738;BME280;33502;47.182;27.506;2023-04-27T12:34:17;100140.72;;;11.51;70.34
47738;BME280;33502;47.182;27.506;2023-04-27T12:36:43;100129.22;;;11.69;71.68
47738;BME280;33502;47.182;27.506;2023-04-27T12:39:13;100104.63;;;11.66;71.69
47738;BME280;33502;47.182;27.506;2023-04-27T12:41:39;100146.69;;;11.01;74.18
47738;BME280;33502;47.182;27.506;2023-04-27T12:44:05;100151.75;;;10.67;78.91